Time;durP1;ratioP1;P1;durP2;ratioP2;P2;SDS_P1;SDS_P2;PMS_P1;PMS_P2;Temp;Humidity;BMP_temperature;BMP_pressure;BME280_temperature;BME280_humidity;BME280_pressure;Samples;Min_cycle;Max_cycle;Signal;HPM_P1;HPM_P2
2024/03/23 00:02:24;;;;;;;5.60;2.80;;;16.20;63.20;;;;;;5052526;28;20224;-66
2024/03/23 00:04:50;;;;;;;5.32;2.92;;;16.20;63.30;;;;;;5054963;28;20171;-66
2024/03/23 00:07:17;;;;;;;3.42;2.20;;;16.20;63.30;;;;;;5054502;28;20657;-67
2024/03/23 00:09:43;;;;;;;4.45;2.88;;;16.10;63.30;;;;;;5054463;28;20313;-66
2024/03/23 00:12:10;;;;;;;5.13;3.38;;;16.10;63.30;;;;;;5054390;28;20630;-66
2024/03/23 00:14:40;;;;;;;6.70;3.00;;;16.10;63.20;;;;;;5054580;28;20191;-66
2024/03/23 00:17:06;;;;;;;4.40;3.70;;;16.10;63.20;;;;;;5054048;28;20167;-66
2024/03/23 00:19:33;;;;;;;5.45;2.92;;;16.10;63.30;;;;;;5054288;28;20179;-66
2024/03/23 00:21:59;;;;;;;4.55;2.60;;;16.10;63.20;;;;;;5054054;28;20182;-67
2024/03/23 00:24:26;;;;;;;4.82;2.80;;;16.10;63.20;;;;;;5054197;28;20653;-67
2024/03/23 00:26:52;;;;;;;4.82;2.97;;;16.20;63.30;;;;;;5054456;28;20167;-66
2024/03/23 00:29:19;;;;;;;5.15;2.80;;;16.10;63.30;;;;;;5053456;28;20250;-66
2024/03/23 00:31:46;;;;;;;4.50;2.88;;;16.10;63.30;;;;;;5053773;28;20654;-66
2024/03/23 00:34:12;;;;;;;4.18;2.65;;;16.10;63.30;;;;;;5054197;28;20217;-66
2024/03/23 00:36:39;;;;;;;4.88;2.58;;;16.10;63.30;;;;;;5053614;28;20235;-67
2024/03/23 00:39:06;;;;;;;5.32;2.67;;;16.10;63.30;;;;;;5054318;28;20182;-66
2024/03/23 00:41:32;;;;;;;5.85;2.45;;;16.10;63.30;;;;;;5053866;28;20229;-67
2024/03/23 00:43:59;;;;;;;4.50;2.97;;;16.10;63.30;;;;;;5053414;28;20528;-66
2024/03/23 00:46:25;;;;;;;3.42;2.40;;;16.10;63.30;;;;;;5053755;28;20179;-66
2024/03/23 00:48:52;;;;;;;4.45;2.45;;;16.10;63.40;;;;;;5054099;28;20219;-65
2024/03/23 00:51:18;;;;;;;5.43;2.60;;;16.10;64.20;;;;;;5052914;28;20171;-65
2024/03/23 00:53:44;;;;;;;4.55;2.95;;;16.10;63.30;;;;;;5054147;28;20178;-66
2024/03/23 00:56:09;;;;;;;4.10;2.78;;;16.10;63.30;;;;;;5053741;28;20573;-67
2024/03/23 00:58:35;;;;;;;4.75;2.70;;;16.00;63.30;;;;;;5053304;28;20171;-66
2024/03/23 01:01:00;;;;;;;4.60;2.40;;;16.10;63.30;;;;;;5053830;28;20533;-67
2024/03/23 01:03:26;;;;;;;4.90;2.72;;;16.00;63.30;;;;;;5053495;28;20665;-66
2024/03/23 01:05:53;;;;;;;3.30;2.47;;;16.00;63.30;;;;;;5053229;28;20171;-66
2024/03/23 01:08:19;;;;;;;4.55;2.65;;;16.00;63.30;;;;;;5053308;28;20743;-67
2024/03/23 01:10:57;;;;;;;7.68;3.13;;;16.00;63.30;;;;;;5053569;28;20175;-67
2024/03/23 01:13:22;;;;;;;3.85;2.60;;;16.00;63.30;;;;;;5052401;28;20179;-66
2024/03/23 01:15:49;;;;;;;6.28;3.53;;;16.00;63.30;;;;;;5053433;28;20175;-65
2024/03/23 01:18:15;;;;;;;4.18;2.28;;;16.00;63.30;;;;;;5052676;28;20191;-66
2024/03/23 01:20:40;;;;;;;4.82;3.00;;;16.00;63.30;;;;;;5053703;28;20174;-67
2024/03/23 01:23:06;;;;;;;4.45;2.90;;;16.00;63.30;;;;;;5053373;28;20214;-68
2024/03/23 01:25:31;;;;;;;5.00;2.67;;;16.00;63.30;;;;;;5052503;28;20207;-66
2024/03/23 01:27:57;;;;;;;4.38;2.50;;;16.00;63.30;;;;;;5053214;28;20238;-66
2024/03/23 01:30:22;;;;;;;5.30;2.85;;;16.00;63.30;;;;;;5052904;28;20218;-66
2024/03/23 01:32:48;;;;;;;6.25;2.92;;;16.00;63.20;;;;;;5052787;28;20175;-65
2024/03/23 01:35:13;;;;;;;3.47;2.70;;;16.00;63.20;;;;;;5052902;28;20678;-67
2024/03/23 01:37:39;;;;;;;2.95;2.70;;;16.00;63.30;;;;;;5053300;28;20178;-67
2024/03/23 01:40:05;;;;;;;4.70;2.75;;;16.00;63.20;;;;;;5052266;28;20211;-67
2024/03/23 01:42:30;;;;;;;5.88;2.75;;;16.00;63.20;;;;;;5052700;28;20262;-67
2024/03/23 01:44:56;;;;;;;4.78;2.90;;;15.90;63.30;;;;;;5052861;28;20313;-66
2024/03/23 01:47:22;;;;;;;4.55;2.60;;;16.00;63.30;;;;;;5052068;28;20250;-66
2024/03/23 01:49:47;;;;;;;5.53;2.78;;;16.00;64.20;;;;;;5053184;28;20270;-67
2024/03/23 01:52:13;;;;;;;3.78;2.40;;;15.90;63.30;;;;;;5052467;28;20713;-66
2024/03/23 01:54:39;;;;;;;4.35;2.45;;;15.90;63.30;;;;;;5050933;28;20265;-66
2024/03/23 01:57:04;;;;;;;5.07;2.63;;;15.90;63.20;;;;;;5051593;28;20254;-66
2024/03/23 01:59:30;;;;;;;4.25;2.45;;;15.90;63.10;;;;;;5052330;28;20630;-66
2024/03/23 02:01:55;;;;;;;7.00;3.53;;;15.90;63.20;;;;;;5050572;28;20182;-66
2024/03/23 02:04:21;;;;;;;3.78;2.60;;;15.90;63.20;;;;;;5052303;28;20178;-67
2024/03/23 02:06:46;;;;;;;6.47;2.90;;;15.90;63.20;;;;;;5052526;28;20167;-67
2024/03/23 02:09:12;;;;;;;5.57;2.47;;;15.90;63.20;;;;;;5050071;28;20221;-66
2024/03/23 02:11:37;;;;;;;4.20;2.83;;;15.90;63.20;;;;;;5052489;28;20171;-66
2024/03/23 02:14:03;;;;;;;5.53;2.88;;;15.90;63.20;;;;;;5052290;28;20186;-66
2024/03/23 02:16:28;;;;;;;5.38;3.03;;;15.90;63.20;;;;;;5051722;28;20186;-66
2024/03/23 02:18:54;;;;;;;4.03;2.72;;;15.90;63.20;;;;;;5052489;28;20171;-66
2024/03/23 02:21:19;;;;;;;4.57;2.88;;;15.90;63.20;;;;;;5051952;28;20176;-66
2024/03/23 02:23:45;;;;;;;5.35;2.95;;;15.90;63.20;;;;;;5051214;28;20305;-66
2024/03/23 02:26:10;;;;;;;5.32;3.05;;;15.90;63.20;;;;;;5051533;28;20308;-66
2024/03/23 02:28:36;;;;;;;6.50;2.92;;;15.90;63.20;;;;;;5051398;28;20292;-65
2024/03/23 02:31:02;;;;;;;5.28;2.88;;;15.90;63.20;;;;;;5052139;28;20178;-66
2024/03/23 02:33:27;;;;;;;7.07;2.92;;;15.80;63.10;;;;;;5052097;28;20183;-66
2024/03/23 02:35:55;;;;;;;4.35;2.95;;;15.90;63.20;;;;;;5051329;28;20341;-67
2024/03/23 02:38:21;;;;;;;4.18;2.60;;;15.90;63.20;;;;;;5051884;28;20637;-67
2024/03/23 02:40:47;;;;;;;4.75;3.22;;;15.90;63.20;;;;;;5051901;28;20233;-67
2024/03/23 02:43:12;;;;;;;4.18;2.60;;;15.90;63.20;;;;;;5050898;28;20653;-66
2024/03/23 02:45:38;;;;;;;5.82;3.30;;;15.90;63.20;;;;;;5051958;28;20175;-65
2024/03/23 02:48:03;;;;;;;5.68;3.03;;;15.80;63.10;;;;;;5051776;28;20214;-66
2024/03/23 02:50:29;;;;;;;4.10;3.20;;;15.80;63.10;;;;;;5051092;28;20186;-66
2024/03/23 02:52:54;;;;;;;5.43;2.55;;;15.80;63.10;;;;;;5051885;28;20175;-65
2024/03/23 02:55:20;;;;;;;2.97;2.40;;;15.80;63.20;;;;;;5051742;28;20178;-66
2024/03/23 02:57:46;;;;;;;5.07;3.13;;;15.80;63.20;;;;;;5051198;28;20167;-66
2024/03/23 03:00:12;;;;;;;5.97;3.22;;;15.80;63.10;;;;;;5051583;28;20175;-68
2024/03/23 03:02:38;;;;;;;5.68;3.17;;;15.80;63.10;;;;;;5051963;28;20171;-66
2024/03/23 03:05:05;;;;;;;5.90;3.05;;;15.80;63.10;;;;;;5050910;28;20659;-66
2024/03/23 03:07:31;;;;;;;5.38;2.70;;;15.80;63.20;;;;;;5051413;28;20189;-67
2024/03/23 03:09:57;;;;;;;5.97;3.00;;;15.80;63.10;;;;;;5051680;28;20240;-66
2024/03/23 03:12:22;;;;;;;5.40;3.00;;;15.80;63.20;;;;;;5050643;28;20175;-66
2024/03/23 03:14:48;;;;;;;5.28;3.03;;;15.80;63.20;;;;;;5051694;28;20175;-65
2024/03/23 03:17:14;;;;;;;4.05;2.78;;;15.80;63.20;;;;;;5051365;28;20181;-66
2024/03/23 03:19:40;;;;;;;2.97;2.45;;;15.80;63.20;;;;;;5051062;28;20185;-66
2024/03/23 03:22:06;;;;;;;5.93;2.75;;;15.80;63.10;;;;;;5051535;28;20254;-66
2024/03/23 03:24:31;;;;;;;4.07;2.45;;;15.80;63.10;;;;;;5051191;28;20167;-66
2024/03/23 03:26:58;;;;;;;2.85;2.60;;;15.70;63.10;;;;;;5050689;28;20216;-65
2024/03/23 03:29:23;;;;;;;4.20;2.70;;;15.80;63.20;;;;;;5051321;28;20292;-65
2024/03/23 03:31:49;;;;;;;3.63;2.70;;;15.80;63.20;;;;;;5051115;28;20171;-66
2024/03/23 03:34:15;;;;;;;4.22;2.65;;;15.70;63.10;;;;;;5051214;28;20171;-66
2024/03/23 03:36:41;;;;;;;4.32;3.35;;;15.80;63.20;;;;;;5054347;28;20182;-67
2024/03/23 03:39:07;;;;;;;4.75;2.78;;;15.80;63.20;;;;;;5054716;28;20546;-67
2024/03/23 03:41:32;;;;;;;4.68;2.80;;;15.80;63.20;;;;;;5054864;28;20681;-66
2024/03/23 03:44:01;;;;;;;4.50;2.78;;;15.70;63.10;;;;;;5055331;28;20179;-66
2024/03/23 03:46:30;;;;;;;5.07;2.90;;;15.70;63.20;;;;;;5054254;28;20186;-66
2024/03/23 03:48:55;;;;;;;5.28;3.40;;;15.70;63.10;;;;;;5055168;28;20218;-66
2024/03/23 03:51:21;;;;;;;6.10;3.70;;;15.70;63.20;;;;;;5054964;28;20642;-66
2024/03/23 03:53:46;;;;;;;4.13;2.80;;;15.70;63.10;;;;;;5054561;28;20179;-66
2024/03/23 03:56:12;;;;;;;3.70;2.40;;;15.70;63.10;;;;;;5054559;28;20455;-67
2024/03/23 03:58:37;;;;;;;4.88;3.22;;;15.70;63.10;;;;;;5055322;28;20258;-66
2024/03/23 04:01:03;;;;;;;4.00;2.80;;;15.70;63.10;;;;;;5054397;28;20171;-66
2024/03/23 04:03:29;;;;;;;5.40;2.92;;;15.70;63.10;;;;;;5054751;28;20190;-67
2024/03/23 04:05:54;;;;;;;4.07;3.08;;;15.70;63.20;;;;;;5054930;28;20233;-66
2024/03/23 04:08:20;;;;;;;4.15;2.58;;;15.70;63.10;;;;;;5053899;28;20547;-67
2024/03/23 04:10:46;;;;;;;6.78;3.05;;;15.70;63.10;;;;;;5054799;28;20683;-67
2024/03/23 04:13:16;;;;;;;4.53;2.70;;;15.70;63.10;;;;;;5054291;28;20186;-66
2024/03/23 04:15:41;;;;;;;5.68;3.00;;;15.70;64.00;;;;;;5054150;28;20179;-66
2024/03/23 04:18:07;;;;;;;5.35;2.78;;;15.70;63.10;;;;;;5054532;28;20229;-66
2024/03/23 04:20:32;;;;;;;3.63;2.85;;;15.60;63.10;;;;;;5054653;28;20186;-66
2024/03/23 04:22:59;;;;;;;5.10;3.00;;;15.60;63.10;;;;;;5053881;28;20252;-67
2024/03/23 04:25:24;;;;;;;4.70;2.83;;;15.60;63.10;;;;;;5054261;28;20190;-66
2024/03/23 04:27:50;;;;;;;5.47;2.78;;;15.70;63.10;;;;;;5054552;28;20211;-66
2024/03/23 04:30:16;;;;;;;4.15;2.92;;;15.60;63.00;;;;;;5053413;28;20186;-67
2024/03/23 04:32:41;;;;;;;5.53;3.20;;;15.60;63.00;;;;;;5054612;28;20183;-66
2024/03/23 04:35:10;;;;;;;4.25;2.75;;;15.60;63.00;;;;;;5053893;28;20193;-67
2024/03/23 04:37:36;;;;;;;4.57;2.92;;;15.60;63.00;;;;;;5054318;28;20175;-67
2024/03/23 04:40:03;;;;;;;5.13;3.42;;;15.60;63.00;;;;;;5053985;28;20237;-66
2024/03/23 04:42:28;;;;;;;5.50;2.85;;;15.60;63.00;;;;;;5053237;28;20182;-67
2024/03/23 04:44:54;;;;;;;4.75;2.65;;;15.60;63.00;;;;;;5054269;28;20183;-66
2024/03/23 04:47:19;;;;;;;5.35;2.97;;;15.60;63.80;;;;;;5053110;28;20270;-65
2024/03/23 04:49:45;;;;;;;4.43;2.70;;;15.60;63.00;;;;;;5053437;28;20254;-65
2024/03/23 04:52:10;;;;;;;4.85;2.40;;;15.60;62.90;;;;;;5053675;28;20179;-66
2024/03/23 04:54:40;;;;;;;6.20;2.90;;;15.60;62.90;;;;;;5053963;28;20634;-66
2024/03/23 04:57:06;;;;;;;3.38;2.92;;;15.60;62.90;;;;;;5053210;28;20229;-66
2024/03/23 04:59:31;;;;;;;6.18;2.80;;;15.60;62.90;;;;;;5053721;28;20172;-66
2024/03/23 05:01:57;;;;;;;5.40;3.25;;;15.50;62.90;;;;;;5053944;28;20227;-67
2024/03/23 05:04:23;;;;;;;3.45;2.33;;;15.50;62.90;;;;;;5053068;28;20190;-66
2024/03/23 05:06:48;;;;;;;4.90;3.35;;;15.60;63.00;;;;;;5053903;28;20186;-67
2024/03/23 05:09:14;;;;;;;3.33;2.78;;;15.60;62.90;;;;;;5053658;28;20215;-67
2024/03/23 05:11:39;;;;;;;6.63;3.53;;;15.50;62.90;;;;;;5053650;28;20182;-65
2024/03/23 05:14:05;;;;;;;3.92;2.50;;;15.50;62.80;;;;;;5053825;28;20257;-66
2024/03/23 05:16:30;;;;;;;6.05;2.65;;;15.60;62.80;;;;;;5053347;28;20194;-66
2024/03/23 05:18:56;;;;;;;4.03;2.45;;;15.50;62.80;;;;;;5052887;28;20207;-66
2024/03/23 05:21:21;;;;;;;2.90;2.10;;;15.50;62.80;;;;;;5053092;28;20645;-66
2024/03/23 05:23:47;;;;;;;4.55;2.58;;;15.50;62.80;;;;;;5053433;28;20179;-66
2024/03/23 05:26:13;;;;;;;3.88;2.65;;;15.50;62.80;;;;;;5052475;28;20196;-66
2024/03/23 05:28:39;;;;;;;4.82;2.88;;;15.50;62.80;;;;;;5053522;28;20230;-65
2024/03/23 05:31:04;;;;;;;4.80;3.10;;;15.50;62.80;;;;;;5053301;28;20168;-65
2024/03/23 05:33:30;;;;;;;4.32;2.92;;;15.50;62.70;;;;;;5052236;28;20171;-65
2024/03/23 05:36:00;;;;;;;4.68;2.58;;;15.50;62.80;;;;;;5053171;28;20175;-67
2024/03/23 05:38:26;;;;;;;3.88;2.17;;;15.50;62.80;;;;;;5052253;28;20186;-66
2024/03/23 05:40:58;;;;;;;4.25;2.40;;;15.50;62.70;;;;;;5053003;28;20219;-66
2024/03/23 05:43:24;;;;;;;3.50;2.25;;;15.50;62.80;;;;;;5052761;28;20213;-66
2024/03/23 05:45:59;;;;;;;4.55;2.53;;;15.50;62.80;;;;;;5052256;28;20266;-66
2024/03/23 05:48:28;;;;;;;7.10;3.03;;;15.50;62.80;;;;;;5052610;28;20210;-64
2024/03/23 05:50:54;;;;;;;4.65;2.17;;;15.50;62.80;;;;;;5052969;28;20187;-66
2024/03/23 05:53:22;;;;;;;4.78;2.80;;;15.50;62.70;;;;;;5051904;28;20186;-65
2024/03/23 05:55:48;;;;;;;4.53;2.40;;;15.50;62.70;;;;;;5052738;28;20578;-66
2024/03/23 05:58:15;;;;;;;3.75;2.50;;;15.50;62.70;;;;;;5052148;28;20179;-66
2024/03/23 06:00:42;;;;;;;3.70;2.13;;;15.50;62.70;;;;;;5051379;28;20191;-66
2024/03/23 06:03:07;;;;;;;3.97;2.40;;;15.50;62.70;;;;;;5052282;28;20625;-65
2024/03/23 06:05:33;;;;;;;4.43;2.50;;;15.50;62.70;;;;;;5052824;28;20190;-66
2024/03/23 06:07:58;;;;;;;3.70;2.67;;;15.50;62.70;;;;;;5051864;28;20203;-66
2024/03/23 06:10:24;;;;;;;3.55;2.45;;;15.50;62.70;;;;;;5052388;28;20175;-66
2024/03/23 06:12:51;;;;;;;2.90;2.10;;;15.50;62.60;;;;;;5052550;28;20221;-65
2024/03/23 06:15:18;;;;;;;3.60;2.25;;;15.50;62.60;;;;;;5051472;28;20718;-65
2024/03/23 06:17:44;;;;;;;4.57;2.58;;;15.50;62.50;;;;;;5052410;28;20206;-65
2024/03/23 06:20:10;;;;;;;3.70;2.25;;;15.50;62.50;;;;;;5052285;28;20688;-66
2024/03/23 06:22:35;;;;;;;3.85;2.08;;;15.50;62.50;;;;;;5051694;28;20179;-65
2024/03/23 06:25:01;;;;;;;3.75;2.08;;;15.50;62.50;;;;;;5052183;28;20699;-65
2024/03/23 06:27:26;;;;;;;3.20;2.25;;;15.50;62.50;;;;;;5051862;28;20201;-66
2024/03/23 06:29:52;;;;;;;3.25;2.78;;;15.50;62.30;;;;;;5051448;28;20197;-65
2024/03/23 06:32:18;;;;;;;4.20;2.25;;;15.60;62.20;;;;;;5051861;28;20174;-66
2024/03/23 06:34:43;;;;;;;2.35;2.00;;;15.60;62.10;;;;;;5051652;28;20209;-66
2024/03/23 06:37:12;;;;;;;4.28;2.20;;;15.60;62.10;;;;;;5051859;28;20543;-66
2024/03/23 06:39:38;;;;;;;2.95;2.03;;;15.60;62.00;;;;;;5051887;28;20175;-66
2024/03/23 06:42:03;;;;;;;4.35;2.22;;;15.60;61.90;;;;;;5051333;28;20244;-66
2024/03/23 06:44:29;;;;;;;4.75;2.50;;;15.60;61.90;;;;;;5051733;28;20183;-66
2024/03/23 06:46:55;;;;;;;3.35;1.80;;;15.60;61.90;;;;;;5051836;28;20186;-66
2024/03/23 06:49:22;;;;;;;3.75;2.10;;;15.60;61.90;;;;;;5051080;28;20223;-65
2024/03/23 06:51:47;;;;;;;3.00;2.20;;;15.70;62.60;;;;;;5051843;28;20619;-65
2024/03/23 06:54:13;;;;;;;4.75;1.85;;;15.70;61.50;;;;;;5051376;28;20266;-66
2024/03/23 06:56:38;;;;;;;3.55;1.83;;;15.80;61.40;;;;;;5051300;28;20194;-65
2024/03/23 06:59:04;;;;;;;3.88;1.80;;;15.90;61.40;;;;;;5051742;28;20269;-65
2024/03/23 07:01:30;;;;;;;3.45;1.83;;;16.00;61.30;;;;;;5051369;28;20221;-65
2024/03/23 07:03:55;;;;;;;3.97;2.20;;;16.10;61.40;;;;;;5051211;28;20195;-65
2024/03/23 07:06:21;;;;;;;4.05;2.05;;;16.10;61.40;;;;;;5051360;28;20258;-66
2024/03/23 07:08:46;;;;;;;4.57;1.60;;;16.20;61.30;;;;;;5051624;28;20214;-66
2024/03/23 07:11:12;;;;;;;2.65;1.55;;;16.30;61.20;;;;;;5054640;28;20179;-66
2024/03/23 07:13:39;;;;;;;4.45;2.10;;;16.50;61.00;;;;;;5056996;28;20178;-65
2024/03/23 07:16:04;;;;;;;3.22;1.90;;;16.70;60.60;;;;;;5058210;28;20232;-66
2024/03/23 07:18:30;;;;;;;2.65;1.65;;;16.90;60.30;;;;;;5057164;28;20175;-65
2024/03/23 07:20:59;;;;;;;3.03;1.60;;;17.00;59.90;;;;;;5058262;28;20179;-66
2024/03/23 07:23:24;;;;;;;3.05;1.70;;;17.10;59.70;;;;;;5058052;28;20213;-66
2024/03/23 07:26:03;;;;;;;2.45;1.52;;;17.20;59.50;;;;;;5057517;28;20200;-65
2024/03/23 07:28:31;;;;;;;2.75;1.67;;;17.40;59.20;;;;;;5057827;28;21006;-66
2024/03/23 07:31:10;;;;;;;3.08;1.35;;;17.40;59.00;;;;;;5057529;28;20201;-64
2024/03/23 07:33:37;;;;;;;2.75;1.35;;;17.60;58.90;;;;;;5058275;28;20214;-66
2024/03/23 07:36:03;;;;;;;3.35;1.90;;;17.60;58.70;;;;;;5058122;28;20175;-66
2024/03/23 07:38:28;;;;;;;1.75;1.25;;;17.60;58.70;;;;;;5057117;28;20182;-66
2024/03/23 07:41:19;;;;;;;4.53;1.48;;;17.60;58.60;;;;;;5057832;28;20229;-66
2024/03/23 07:43:45;;;;;;;1.90;1.33;;;17.70;58.60;;;;;;5058248;28;20174;-65
2024/03/23 07:46:11;;;;;;;3.65;1.60;;;17.70;58.60;;;;;;5057163;28;20175;-66
2024/03/23 07:48:37;;;;;;;2.53;1.40;;;17.70;58.50;;;;;;5057946;28;20213;-65
2024/03/23 07:51:10;;;;;;;2.65;1.73;;;17.70;58.50;;;;;;5058010;28;20179;-65
2024/03/23 07:53:36;;;;;;;1.77;1.30;;;17.80;58.50;;;;;;5057132;28;20190;-66
2024/03/23 07:56:07;;;;;;;3.05;1.75;;;17.80;58.40;;;;;;5058131;28;20206;-66
2024/03/23 07:58:33;;;;;;;2.47;1.60;;;17.80;58.40;;;;;;5058042;28;20232;-67
2024/03/23 08:01:13;;;;;;;4.25;1.73;;;17.80;58.40;;;;;;5057293;28;20175;-67
2024/03/23 08:03:39;;;;;;;3.15;1.30;;;17.90;58.40;;;;;;5057945;28;20186;-66
2024/03/23 08:06:10;;;;;;;2.90;1.85;;;17.90;58.40;;;;;;5057666;28;20692;-67
2024/03/23 08:08:36;;;;;;;2.83;1.33;;;17.70;58.50;;;;;;5057972;28;20246;-67
2024/03/23 08:11:02;;;;;;;3.50;1.45;;;17.70;58.80;;;;;;5058050;28;20209;-66
2024/03/23 08:13:28;;;;;;;3.33;1.40;;;17.50;59.00;;;;;;5057013;28;20185;-65
2024/03/23 08:16:01;;;;;;;4.13;1.60;;;17.40;59.10;;;;;;5057774;28;20540;-66
2024/03/23 08:18:26;;;;;;;1.75;1.38;;;17.40;59.30;;;;;;5057476;28;20630;-66
2024/03/23 08:21:02;;;;;;;2.83;1.80;;;17.40;59.40;;;;;;5056997;28;20225;-66
2024/03/23 08:23:29;;;;;;;3.60;1.60;;;17.40;59.40;;;;;;5053677;28;20932;-64
2024/03/23 08:25:58;;;;;;;4.22;1.52;;;17.40;59.40;;;;;;5054591;28;20215;-65
2024/03/23 08:28:24;;;;;;;4.60;1.45;;;17.40;59.40;;;;;;5053381;28;20207;-65
2024/03/23 08:30:49;;;;;;;2.40;1.40;;;17.40;60.10;;;;;;5054491;28;20254;-65
2024/03/23 08:33:15;;;;;;;1.63;1.52;;;17.40;59.40;;;;;;5053936;28;20179;-65
2024/03/23 08:35:41;;;;;;;1.80;1.17;;;17.40;59.40;;;;;;5053534;28;20273;-66
2024/03/23 08:38:07;;;;;;;2.83;1.42;;;17.40;59.60;;;;;;5054434;28;20221;-66
2024/03/23 08:40:32;;;;;;;2.42;1.30;;;17.30;59.50;;;;;;5053820;28;20298;-66
2024/03/23 08:42:58;;;;;;;3.35;1.40;;;17.30;59.40;;;;;;5053583;28;20167;-65
2024/03/23 08:45:24;;;;;;;3.35;1.70;;;17.30;59.50;;;;;;5053924;28;20727;-65
2024/03/23 08:47:50;;;;;;;3.38;1.48;;;17.30;59.60;;;;;;5053992;28;20214;-65
2024/03/23 08:50:16;;;;;;;3.30;1.38;;;17.30;59.70;;;;;;5053407;28;20175;-65
2024/03/23 08:52:41;;;;;;;3.40;1.20;;;17.30;59.80;;;;;;5054244;28;20175;-65
2024/03/23 08:55:07;;;;;;;3.28;1.48;;;17.20;59.60;;;;;;5054011;28;20258;-65
2024/03/23 08:57:33;;;;;;;3.47;1.70;;;17.30;59.70;;;;;;5053107;28;20175;-66
2024/03/23 08:59:58;;;;;;;2.72;1.45;;;17.20;59.70;;;;;;5053845;28;20186;-66
2024/03/23 09:02:24;;;;;;;1.65;1.30;;;17.20;59.80;;;;;;5053005;28;20179;-66
2024/03/23 09:04:49;;;;;;;3.97;1.35;;;17.20;59.80;;;;;;5054033;28;20258;-65
2024/03/23 09:07:15;;;;;;;2.42;1.30;;;17.10;59.80;;;;;;5053424;28;20258;-67
2024/03/23 09:09:40;;;;;;;3.85;1.35;;;17.00;59.90;;;;;;5053030;28;20219;-67
2024/03/23 09:12:06;;;;;;;4.03;1.50;;;17.00;59.90;;;;;;5053468;28;20172;-67
2024/03/23 09:14:33;;;;;;;1.67;1.25;;;16.90;60.00;;;;;;5053289;28;20179;-66
2024/03/23 09:16:59;;;;;;;4.18;1.67;;;17.00;60.10;;;;;;5052726;28;20171;-66
2024/03/23 09:19:27;;;;;;;1.67;1.30;;;17.00;60.10;;;;;;5053052;28;20591;-66
2024/03/23 09:21:53;;;;;;;2.72;1.10;;;17.00;60.10;;;;;;5053583;28;20278;-66
2024/03/23 09:24:19;;;;;;;2.55;1.17;;;17.00;60.10;;;;;;5052658;28;20186;-67
2024/03/23 09:26:44;;;;;;;2.72;1.40;;;17.00;60.00;;;;;;5053464;28;20250;-66
2024/03/23 09:29:10;;;;;;;2.78;1.50;;;16.90;60.00;;;;;;5052866;28;20994;-66
2024/03/23 09:31:36;;;;;;;3.97;1.70;;;16.90;60.00;;;;;;5052521;28;20217;-65
2024/03/23 09:34:01;;;;;;;4.30;1.48;;;16.90;60.10;;;;;;5053011;28;20179;-66
2024/03/23 09:36:27;;;;;;;2.03;1.20;;;16.80;60.10;;;;;;5053085;28;20273;-67
2024/03/23 09:38:52;;;;;;;1.92;1.20;;;16.80;60.20;;;;;;5052341;28;20261;-67
2024/03/23 09:41:18;;;;;;;1.60;1.30;;;16.90;60.10;;;;;;5052708;28;20223;-66
2024/03/23 09:43:43;;;;;;;3.25;1.38;;;17.00;59.90;;;;;;5053079;28;20198;-66
2024/03/23 09:46:09;;;;;;;2.63;1.27;;;17.00;59.80;;;;;;5051817;28;20232;-65
2024/03/23 09:48:34;;;;;;;2.50;1.48;;;17.20;59.80;;;;;;5053215;28;20696;-65
2024/03/23 09:51:00;;;;;;;2.17;1.25;;;17.20;59.80;;;;;;5052932;28;20167;-65
2024/03/23 09:53:25;;;;;;;1.88;1.30;;;17.20;59.70;;;;;;5050577;28;20181;-65
2024/03/23 09:55:51;;;;;;;1.20;1.10;;;17.30;59.70;;;;;;5051660;28;20182;-65
2024/03/23 09:58:17;;;;;;;3.20;1.40;;;17.30;59.60;;;;;;5052516;28;20629;-66
2024/03/23 10:00:43;;;;;;;1.77;1.20;;;17.30;59.60;;;;;;5052068;28;20173;-66
2024/03/23 10:03:10;;;;;;;3.47;1.40;;;17.30;59.60;;;;;;5052234;28;20615;-66
2024/03/23 10:05:36;;;;;;;2.35;1.00;;;17.40;59.60;;;;;;5052859;28;20254;-66
2024/03/23 10:08:19;;;;;;;2.03;1.30;;;17.50;59.50;;;;;;5051734;28;20289;-66
2024/03/23 10:10:46;;;;;;;2.85;1.10;;;17.50;59.30;;;;;;5051543;28;20179;-65
2024/03/23 10:13:14;;;;;;;2.45;1.40;;;17.50;59.40;;;;;;5051477;28;20187;-65
2024/03/23 10:15:39;;;;;;;3.47;1.20;;;17.40;59.60;;;;;;5051173;28;20583;-66
2024/03/23 10:18:18;;;;;;;2.70;1.20;;;17.20;59.80;;;;;;5052430;28;20254;-66
2024/03/23 10:20:45;;;;;;;2.28;1.30;;;17.10;60.10;;;;;;5051712;28;20591;-66
2024/03/23 10:23:17;;;;;;;2.70;1.58;;;17.00;60.20;;;;;;5051987;28;20187;-65
2024/03/23 10:25:43;;;;;;;3.28;1.17;;;16.90;60.40;;;;;;5052311;28;20190;-67
2024/03/23 10:28:09;;;;;;;2.22;1.00;;;17.00;60.40;;;;;;5051468;28;20219;-66
2024/03/23 10:30:35;;;;;;;2.47;1.40;;;16.90;60.30;;;;;;5052489;28;20194;-65
2024/03/23 10:33:13;;;;;;;1.42;1.20;;;16.90;60.40;;;;;;5052242;28;20626;-66
2024/03/23 10:35:39;;;;;;;2.40;1.25;;;16.90;60.50;;;;;;5051706;28;20578;-67
2024/03/23 10:38:05;;;;;;;2.35;1.30;;;16.90;60.40;;;;;;5052035;28;20585;-67
2024/03/23 10:40:31;;;;;;;2.15;1.48;;;16.90;60.40;;;;;;5051903;28;20230;-66
2024/03/23 10:42:57;;;;;;;3.22;1.45;;;16.80;60.40;;;;;;5051576;28;20245;-65
2024/03/23 10:45:23;;;;;;;1.80;0.93;;;16.80;60.50;;;;;;5049843;28;20175;-65
2024/03/23 10:47:48;;;;;;;1.45;1.10;;;16.80;60.60;;;;;;5050701;28;20171;-65
2024/03/23 10:50:20;;;;;;;2.03;1.00;;;16.80;60.50;;;;;;5050843;28;20183;-67
2024/03/23 10:52:49;;;;;;;2.28;1.20;;;16.80;60.50;;;;;;5050649;28;20184;-65
2024/03/23 10:55:18;;;;;;;2.30;1.33;;;16.90;61.20;;;;;;5051317;28;20206;-65
2024/03/23 10:57:49;;;;;;;4.07;1.20;;;16.90;59.90;;;;;;5050882;28;20187;-66
2024/03/23 11:00:16;;;;;;;2.97;1.60;;;17.00;59.80;;;;;;5050474;28;20229;-65
2024/03/23 11:02:41;;;;;;;3.25;1.10;;;17.20;59.70;;;;;;5049963;28;20186;-66
2024/03/23 11:05:25;;;;;;;2.45;1.13;;;17.20;59.50;;;;;;5051548;28;20175;-66
2024/03/23 11:07:51;;;;;;;2.38;1.40;;;17.20;59.50;;;;;;5051452;28;20960;-66
2024/03/23 11:10:30;;;;;;;1.52;0.90;;;17.20;59.50;;;;;;5050933;28;20187;-66
2024/03/23 11:12:57;;;;;;;2.45;1.13;;;17.20;59.40;;;;;;5051426;28;20167;-65
2024/03/23 11:15:22;;;;;;;1.65;1.10;;;17.20;59.50;;;;;;5051350;28;20183;-66
2024/03/23 11:18:04;;;;;;;2.40;1.25;;;17.10;59.50;;;;;;5050816;28;20570;-66
2024/03/23 11:20:33;;;;;;;2.70;1.52;;;17.10;59.60;;;;;;5051287;28;20184;-66
2024/03/23 11:22:59;;;;;;;2.72;1.17;;;17.10;59.60;;;;;;5051594;28;20179;-66
2024/03/23 11:25:26;;;;;;;1.08;0.98;;;17.20;59.40;;;;;;5050620;28;20588;-66
2024/03/23 11:27:52;;;;;;;4.68;1.45;;;17.30;59.40;;;;;;5051391;28;20175;-66
2024/03/23 11:30:22;;;;;;;1.58;1.08;;;17.20;59.30;;;;;;5050408;28;20258;-66
2024/03/23 11:32:48;;;;;;;2.65;1.13;;;17.30;59.20;;;;;;5051796;28;20258;-66
2024/03/23 11:35:26;;;;;;;2.33;1.05;;;17.40;59.10;;;;;;5051275;28;20214;-66
2024/03/23 11:38:08;;;;;;;2.45;1.02;;;17.30;59.00;;;;;;5050793;28;20202;-68
2024/03/23 11:40:38;;;;;;;2.47;1.50;;;17.20;59.30;;;;;;5051266;28;20226;-67
2024/03/23 11:43:08;;;;;;;1.35;0.93;;;17.20;59.30;;;;;;5051258;28;20589;-67
2024/03/23 11:45:36;;;;;;;2.17;1.10;;;17.20;59.30;;;;;;5050634;28;20203;-66
2024/03/23 11:48:05;;;;;;;1.45;1.10;;;17.20;59.30;;;;;;5051087;28;20626;-66
2024/03/23 11:50:31;;;;;;;1.35;0.90;;;17.10;59.50;;;;;;5051151;28;20186;-66
2024/03/23 11:53:18;;;;;;;2.28;1.30;;;17.10;59.60;;;;;;5050657;28;20257;-66
2024/03/23 11:55:50;;;;;;;1.45;0.90;;;17.10;59.70;;;;;;5051559;28;20178;-66
2024/03/23 11:58:17;;;;;;;2.17;1.00;;;17.20;59.50;;;;;;5052394;28;20175;-66
2024/03/23 12:00:56;;;;;;;2.15;1.02;;;17.30;59.20;;;;;;5055000;28;20201;-67
2024/03/23 12:03:25;;;;;;;2.20;1.00;;;17.40;59.10;;;;;;5054778;28;20209;-67
2024/03/23 12:05:54;;;;;;;2.65;1.20;;;17.50;59.00;;;;;;5054135;28;20167;-66
2024/03/23 12:08:21;;;;;;;2.33;1.30;;;17.50;58.80;;;;;;5054765;28;20241;-67
2024/03/23 12:10:53;;;;;;;1.88;1.10;;;17.40;58.90;;;;;;5054787;28;20175;-67
2024/03/23 12:13:20;;;;;;;3.30;1.00;;;17.30;59.80;;;;;;5053702;28;20183;-66
2024/03/23 12:15:46;;;;;;;2.53;1.00;;;17.20;59.50;;;;;;5054893;28;20175;-66
2024/03/23 12:18:12;;;;;;;1.75;1.20;;;17.10;59.60;;;;;;5054377;28;20181;-66
2024/03/23 12:20:38;;;;;;;2.70;0.93;;;17.10;59.80;;;;;;5053851;28;20183;-66
2024/03/23 12:23:11;;;;;;;3.25;1.27;;;17.10;59.70;;;;;;5054708;28;20519;-68
2024/03/23 12:25:37;;;;;;;2.97;1.20;;;17.00;59.60;;;;;;5054690;28;20257;-67
2024/03/23 12:28:04;;;;;;;1.65;0.93;;;17.10;59.60;;;;;;5054112;28;20194;-66
2024/03/23 12:30:30;;;;;;;1.10;0.80;;;17.10;59.50;;;;;;5054184;28;20183;-66
2024/03/23 12:32:56;;;;;;;3.88;1.63;;;17.00;59.50;;;;;;5054294;28;20175;-66
2024/03/23 12:35:22;;;;;;;4.35;1.52;;;17.00;59.70;;;;;;5053595;28;20182;-68
2024/03/23 12:37:47;;;;;;;2.47;0.82;;;16.90;59.70;;;;;;5054532;28;20541;-68
2024/03/23 12:40:13;;;;;;;2.50;1.27;;;16.90;59.70;;;;;;5053796;28;20226;-68
2024/03/23 12:42:38;;;;;;;1.92;1.00;;;17.00;59.60;;;;;;5053557;28;20237;-67
2024/03/23 12:45:05;;;;;;;1.90;1.00;;;17.10;59.50;;;;;;5054050;28;20649;-66
2024/03/23 12:47:30;;;;;;;1.48;0.93;;;17.20;59.50;;;;;;5053141;28;20198;-66